sensor_id;sensor_type;location;lat;lon;timestamp;P1;durP1;ratioP1;P2;durP2;ratioP2
50932;SDS011;36921;49.006;9.292;2023-08-08T00:01:36;3.45;;;1.25;;
50932;SDS011;36921;49.006;9.292;2023-08-08T00:04:02;3.47;;;1.23;;
50932;SDS011;36921;49.006;9.292;2023-08-08T00:06:27;2.42;;;1.20;;
50932;SDS011;36921;49.006;9.292;2023-08-08T00:08:52;3.58;;;1.00;;
50932;SDS011;36921;49.006;9.292;2023-08-08T00:11:17;4.53;;;1.20;;
50932;SDS011;36921;49.006;9.292;2023-08-08T00:13:43;2.70;;;1.13;;
50932;SDS011;36921;49.006;9.292;2023-08-08T00:16:08;2.10;;;1.10;;
50932;SDS011;36921;49.006;9.292;2023-08-08T00:18:33;2.97;;;1.30;;
50932;SDS011;36921;49.006;9.292;2023-08-08T00:20:59;2.85;;;1.20;;
50932;SDS011;36921;49.006;9.292;2023-08-08T00:23:24;4.10;;;1.58;;
50932;SDS011;36921;49.006;9.292;2023-08-08T00:25:49;2.22;;;1.50;;
50932;SDS011;36921;49.006;9.292;2023-08-08T00:28:16;3.35;;;1.63;;
50932;SDS011;36921;49.006;9.292;2023-08-08T00:30:42;5.00;;;1.60;;
50932;SDS011;36921;49.006;9.292;2023-08-08T00:33:08;1.73;;;1.30;;
50932;SDS011;36921;49.006;9.292;2023-08-08T00:35:33;2.63;;;1.45;;
50932;SDS011;36921;49.006;9.292;2023-08-08T00:37:58;1.90;;;1.20;;
50932;SDS011;36921;49.006;9.292;2023-08-08T00:40:23;3.17;;;1.42;;
50932;SDS011;36921;49.006;9.292;2023-08-08T00:42:49;4.00;;;1.33;;
50932;SDS011;36921;49.006;9.292;2023-08-08T00:45:14;2.00;;;1.25;;
50932;SDS011;36921;49.006;9.292;2023-08-08T00:47:39;2.08;;;1.10;;
50932;SDS011;36921;49.006;9.292;2023-08-08T00:50:05;1.42;;;1.05;;
50932;SDS011;36921;49.006;9.292;2023-08-08T00:52:31;2.20;;;1.40;;
50932;SDS011;36921;49.006;9.292;2023-08-08T00:54:56;2.05;;;1.27;;
50932;SDS011;36921;49.006;9.292;2023-08-08T00:57:22;3.13;;;1.30;;
50932;SDS011;36921;49.006;9.292;2023-08-08T00:59:48;3.72;;;1.05;;
50932;SDS011;36921;49.006;9.292;2023-08-08T01:02:13;4.60;;;1.50;;
50932;SDS011;36921;49.006;9.292;2023-08-08T01:04:39;2.53;;;1.40;;
50932;SDS011;36921;49.006;9.292;2023-08-08T01:07:49;1.65;;;1.10;;
50932;SDS011;36921;49.006;9.292;2023-08-08T01:10:12;4.13;;;1.10;;
50932;SDS011;36921;49.006;9.292;2023-08-08T01:12:44;2.97;;;1.35;;
50932;SDS011;36921;49.006;9.292;2023-08-08T01:15:15;3.20;;;1.13;;
50932;SDS011;36921;49.006;9.292;2023-08-08T01:17:41;4.88;;;1.15;;
50932;SDS011;36921;49.006;9.292;2023-08-08T01:20:07;2.10;;;1.17;;
50932;SDS011;36921;49.006;9.292;2023-08-08T01:22:55;1.98;;;1.10;;
50932;SDS011;36921;49.006;9.292;2023-08-08T01:25:28;2.67;;;1.20;;
50932;SDS011;36921;49.006;9.292;2023-08-08T01:27:54;2.05;;;1.20;;
50932;SDS011;36921;49.006;9.292;2023-08-08T01:30:20;3.08;;;1.50;;
50932;SDS011;36921;49.006;9.292;2023-08-08T01:32:45;5.07;;;1.73;;
50932;SDS011;36921;49.006;9.292;2023-08-08T01:35:11;3.60;;;1.30;;
50932;SDS011;36921;49.006;9.292;2023-08-08T01:37:39;3.67;;;1.67;;
50932;SDS011;36921;49.006;9.292;2023-08-08T01:40:05;2.15;;;1.35;;
50932;SDS011;36921;49.006;9.292;2023-08-08T01:42:32;2.92;;;1.50;;
50932;SDS011;36921;49.006;9.292;2023-08-08T01:44:58;3.38;;;1.80;;
50932;SDS011;36921;49.006;9.292;2023-08-08T01:47:24;2.70;;;1.70;;
50932;SDS011;36921;49.006;9.292;2023-08-08T01:49:49;2.25;;;1.45;;
50932;SDS011;36921;49.006;9.292;2023-08-08T01:52:14;3.58;;;1.50;;
50932;SDS011;36921;49.006;9.292;2023-08-08T01:54:40;4.13;;;1.60;;
50932;SDS011;36921;49.006;9.292;2023-08-08T01:57:07;2.70;;;1.30;;
50932;SDS011;36921;49.006;9.292;2023-08-08T01:59:32;2.17;;;1.45;;
50932;SDS011;36921;49.006;9.292;2023-08-08T02:01:58;7.78;;;1.48;;
50932;SDS011;36921;49.006;9.292;2023-08-08T02:04:23;6.25;;;1.65;;
50932;SDS011;36921;49.006;9.292;2023-08-08T02:06:48;2.42;;;1.55;;
50932;SDS011;36921;49.006;9.292;2023-08-08T02:09:14;4.50;;;1.17;;
50932;SDS011;36921;49.006;9.292;2023-08-08T02:11:42;4.85;;;1.50;;
50932;SDS011;36921;49.006;9.292;2023-08-08T02:14:07;4.90;;;1.35;;
50932;SDS011;36921;49.006;9.292;2023-08-08T02:16:32;3.10;;;1.40;;
50932;SDS011;36921;49.006;9.292;2023-08-08T02:18:59;2.17;;;1.30;;
50932;SDS011;36921;49.006;9.292;2023-08-08T02:21:25;2.42;;;1.17;;
50932;SDS011;36921;49.006;9.292;2023-08-08T02:23:50;1.98;;;1.30;;
50932;SDS011;36921;49.006;9.292;2023-08-08T02:26:16;6.15;;;1.67;;
50932;SDS011;36921;49.006;9.292;2023-08-08T02:28:41;2.25;;;1.13;;
50932;SDS011;36921;49.006;9.292;2023-08-08T02:31:06;4.47;;;1.25;;
50932;SDS011;36921;49.006;9.292;2023-08-08T02:33:32;2.72;;;1.50;;
50932;SDS011;36921;49.006;9.292;2023-08-08T02:35:57;5.03;;;1.30;;
50932;SDS011;36921;49.006;9.292;2023-08-08T02:38:22;1.75;;;1.55;;
50932;SDS011;36921;49.006;9.292;2023-08-08T02:40:48;4.63;;;1.60;;
50932;SDS011;36921;49.006;9.292;2023-08-08T02:43:13;3.70;;;1.55;;
50932;SDS011;36921;49.006;9.292;2023-08-08T02:45:38;1.98;;;1.40;;
50932;SDS011;36921;49.006;9.292;2023-08-08T02:48:04;1.73;;;1.27;;
50932;SDS011;36921;49.006;9.292;2023-08-08T02:50:30;3.10;;;1.50;;
50932;SDS011;36921;49.006;9.292;2023-08-08T02:52:55;3.30;;;2.05;;
50932;SDS011;36921;49.006;9.292;2023-08-08T02:55:21;2.03;;;1.30;;
50932;SDS011;36921;49.006;9.292;2023-08-08T02:57:46;6.32;;;1.77;;
50932;SDS011;36921;49.006;9.292;2023-08-08T03:00:12;4.75;;;1.95;;
50932;SDS011;36921;49.006;9.292;2023-08-08T03:02:37;4.05;;;1.45;;
50932;SDS011;36921;49.006;9.292;2023-08-08T03:05:03;2.20;;;1.50;;
50932;SDS011;36921;49.006;9.292;2023-08-08T03:07:29;6.43;;;2.17;;
50932;SDS011;36921;49.006;9.292;2023-08-08T03:09:54;4.60;;;2.70;;
50932;SDS011;36921;49.006;9.292;2023-08-08T03:12:20;4.68;;;1.75;;
50932;SDS011;36921;49.006;9.292;2023-08-08T03:14:45;2.50;;;1.75;;
50932;SDS011;36921;49.006;9.292;2023-08-08T03:17:11;3.33;;;1.75;;
50932;SDS011;36921;49.006;9.292;2023-08-08T03:19:37;5.07;;;1.70;;
50932;SDS011;36921;49.006;9.292;2023-08-08T03:22:02;3.08;;;1.92;;
50932;SDS011;36921;49.006;9.292;2023-08-08T03:24:27;3.33;;;1.70;;
50932;SDS011;36921;49.006;9.292;2023-08-08T03:26:53;4.65;;;2.10;;
50932;SDS011;36921;49.006;9.292;2023-08-08T03:29:18;4.45;;;2.00;;
50932;SDS011;36921;49.006;9.292;2023-08-08T03:31:43;3.38;;;1.95;;
50932;SDS011;36921;49.006;9.292;2023-08-08T03:34:09;6.60;;;2.00;;
50932;SDS011;36921;49.006;9.292;2023-08-08T03:36:34;6.28;;;1.90;;
50932;SDS011;36921;49.006;9.292;2023-08-08T03:38:59;4.50;;;1.92;;
50932;SDS011;36921;49.006;9.292;2023-08-08T03:41:25;4.70;;;1.73;;
50932;SDS011;36921;49.006;9.292;2023-08-08T03:43:50;2.72;;;1.90;;
50932;SDS011;36921;49.006;9.292;2023-08-08T03:46:16;3.42;;;1.88;;
50932;SDS011;36921;49.006;9.292;2023-08-08T03:48:42;8.88;;;2.42;;
50932;SDS011;36921;49.006;9.292;2023-08-08T03:51:08;5.43;;;2.50;;
50932;SDS011;36921;49.006;9.292;2023-08-08T03:53:33;7.72;;;2.17;;
50932;SDS011;36921;49.006;9.292;2023-08-08T03:55:59;3.88;;;1.90;;
50932;SDS011;36921;49.006;9.292;2023-08-08T03:58:24;4.40;;;1.92;;
50932;SDS011;36921;49.006;9.292;2023-08-08T04:00:50;2.20;;;1.60;;
50932;SDS011;36921;49.006;9.292;2023-08-08T04:03:16;2.28;;;1.70;;
50932;SDS011;36921;49.006;9.292;2023-08-08T04:05:45;8.23;;;1.75;;
50932;SDS011;36921;49.006;9.292;2023-08-08T04:08:12;3.17;;;1.35;;
50932;SDS011;36921;49.006;9.292;2023-08-08T04:10:37;3.17;;;1.90;;
50932;SDS011;36921;49.006;9.292;2023-08-08T04:13:03;5.70;;;1.58;;
50932;SDS011;36921;49.006;9.292;2023-08-08T04:15:28;4.45;;;1.55;;
50932;SDS011;36921;49.006;9.292;2023-08-08T04:17:54;4.10;;;1.67;;
50932;SDS011;36921;49.006;9.292;2023-08-08T04:20:20;3.08;;;1.45;;
50932;SDS011;36921;49.006;9.292;2023-08-08T04:22:45;4.38;;;1.70;;
50932;SDS011;36921;49.006;9.292;2023-08-08T04:25:11;4.90;;;2.00;;
50932;SDS011;36921;49.006;9.292;2023-08-08T04:27:36;3.15;;;1.75;;
50932;SDS011;36921;49.006;9.292;2023-08-08T04:30:02;5.30;;;1.77;;
50932;SDS011;36921;49.006;9.292;2023-08-08T04:32:28;3.70;;;1.30;;
50932;SDS011;36921;49.006;9.292;2023-08-08T04:34:53;3.50;;;1.80;;
50932;SDS011;36921;49.006;9.292;2023-08-08T04:37:18;3.00;;;1.55;;
50932;SDS011;36921;49.006;9.292;2023-08-08T04:39:44;4.22;;;1.60;;
50932;SDS011;36921;49.006;9.292;2023-08-08T04:42:09;3.03;;;1.48;;
50932;SDS011;36921;49.006;9.292;2023-08-08T04:44:34;4.78;;;1.40;;
50932;SDS011;36921;49.006;9.292;2023-08-08T04:47:00;2.85;;;1.33;;
50932;SDS011;36921;49.006;9.292;2023-08-08T04:49:25;1.48;;;1.10;;
50932;SDS011;36921;49.006;9.292;2023-08-08T04:51:50;7.78;;;1.88;;
50932;SDS011;36921;49.006;9.292;2023-08-08T04:54:16;3.63;;;1.50;;
50932;SDS011;36921;49.006;9.292;2023-08-08T04:56:41;2.25;;;1.15;;
50932;SDS011;36921;49.006;9.292;2023-08-08T04:59:06;2.53;;;1.35;;
50932;SDS011;36921;49.006;9.292;2023-08-08T05:01:32;4.50;;;1.45;;
50932;SDS011;36921;49.006;9.292;2023-08-08T05:03:57;5.15;;;1.50;;
50932;SDS011;36921;49.006;9.292;2023-08-08T05:06:22;3.05;;;1.38;;
50932;SDS011;36921;49.006;9.292;2023-08-08T05:08:48;2.58;;;1.35;;
50932;SDS011;36921;49.006;9.292;2023-08-08T05:11:15;6.60;;;1.40;;
50932;SDS011;36921;49.006;9.292;2023-08-08T05:13:40;2.65;;;1.50;;
50932;SDS011;36921;49.006;9.292;2023-08-08T05:16:05;2.58;;;1.70;;
50932;SDS011;36921;49.006;9.292;2023-08-08T05:18:31;2.13;;;1.40;;
50932;SDS011;36921;49.006;9.292;2023-08-08T05:20:56;11.23;;;2.10;;
50932;SDS011;36921;49.006;9.292;2023-08-08T05:23:22;6.10;;;1.70;;
50932;SDS011;36921;49.006;9.292;2023-08-08T05:25:47;7.75;;;2.03;;
50932;SDS011;36921;49.006;9.292;2023-08-08T05:28:13;2.80;;;1.30;;
50932;SDS011;36921;49.006;9.292;2023-08-08T05:30:39;4.97;;;1.30;;
50932;SDS011;36921;49.006;9.292;2023-08-08T05:33:04;2.75;;;1.40;;
50932;SDS011;36921;49.006;9.292;2023-08-08T05:35:30;2.10;;;1.40;;
50932;SDS011;36921;49.006;9.292;2023-08-08T05:37:55;2.25;;;1.17;;
50932;SDS011;36921;49.006;9.292;2023-08-08T05:40:20;2.75;;;1.20;;
50932;SDS011;36921;49.006;9.292;2023-08-08T05:42:46;2.83;;;1.27;;
50932;SDS011;36921;49.006;9.292;2023-08-08T05:45:11;3.90;;;1.23;;
50932;SDS011;36921;49.006;9.292;2023-08-08T05:47:36;3.78;;;1.20;;
50932;SDS011;36921;49.006;9.292;2023-08-08T05:50:02;4.75;;;1.50;;
50932;SDS011;36921;49.006;9.292;2023-08-08T05:52:27;2.22;;;1.40;;
50932;SDS011;36921;49.006;9.292;2023-08-08T05:54:52;2.03;;;1.17;;
50932;SDS011;36921;49.006;9.292;2023-08-08T05:57:18;3.35;;;1.15;;
50932;SDS011;36921;49.006;9.292;2023-08-08T05:59:43;2.70;;;1.55;;
50932;SDS011;36921;49.006;9.292;2023-08-08T06:02:09;3.25;;;1.23;;
50932;SDS011;36921;49.006;9.292;2023-08-08T06:04:35;5.30;;;1.27;;
50932;SDS011;36921;49.006;9.292;2023-08-08T06:07:00;2.38;;;1.17;;
50932;SDS011;36921;49.006;9.292;2023-08-08T06:09:26;8.15;;;1.50;;
50932;SDS011;36921;49.006;9.292;2023-08-08T06:11:51;3.80;;;1.30;;
50932;SDS011;36921;49.006;9.292;2023-08-08T06:14:16;4.22;;;1.33;;
50932;SDS011;36921;49.006;9.292;2023-08-08T06:16:42;1.55;;;1.10;;
50932;SDS011;36921;49.006;9.292;2023-08-08T06:19:08;1.58;;;1.13;;
50932;SDS011;36921;49.006;9.292;2023-08-08T06:21:33;3.40;;;1.48;;
50932;SDS011;36921;49.006;9.292;2023-08-08T06:24:00;4.93;;;1.23;;
50932;SDS011;36921;49.006;9.292;2023-08-08T06:26:26;3.00;;;1.30;;
50932;SDS011;36921;49.006;9.292;2023-08-08T06:28:51;1.13;;;0.70;;
50932;SDS011;36921;49.006;9.292;2023-08-08T06:31:17;3.35;;;0.88;;
50932;SDS011;36921;49.006;9.292;2023-08-08T06:33:43;3.13;;;1.25;;
50932;SDS011;36921;49.006;9.292;2023-08-08T06:36:08;4.90;;;0.90;;
50932;SDS011;36921;49.006;9.292;2023-08-08T06:38:33;1.25;;;0.88;;
50932;SDS011;36921;49.006;9.292;2023-08-08T06:40:59;1.00;;;0.60;;
50932;SDS011;36921;49.006;9.292;2023-08-08T06:43:25;1.45;;;0.70;;
50932;SDS011;36921;49.006;9.292;2023-08-08T06:45:51;2.90;;;0.70;;
50932;SDS011;36921;49.006;9.292;2023-08-08T06:48:16;1.40;;;0.65;;
50932;SDS011;36921;49.006;9.292;2023-08-08T06:50:42;1.25;;;0.70;;
50932;SDS011;36921;49.006;9.292;2023-08-08T06:53:07;4.18;;;0.80;;
50932;SDS011;36921;49.006;9.292;2023-08-08T06:55:33;2.42;;;0.75;;
50932;SDS011;36921;49.006;9.292;2023-08-08T06:57:58;3.03;;;1.00;;
50932;SDS011;36921;49.006;9.292;2023-08-08T07:00:23;6.45;;;0.80;;
50932;SDS011;36921;49.006;9.292;2023-08-08T07:02:49;2.55;;;0.90;;
50932;SDS011;36921;49.006;9.292;2023-08-08T07:05:14;1.85;;;0.75;;
50932;SDS011;36921;49.006;9.292;2023-08-08T07:07:40;2.55;;;0.70;;
50932;SDS011;36921;49.006;9.292;2023-08-08T07:10:05;7.43;;;0.77;;
50932;SDS011;36921;49.006;9.292;2023-08-08T07:12:31;3.67;;;0.57;;
50932;SDS011;36921;49.006;9.292;2023-08-08T07:14:57;3.28;;;0.90;;
50932;SDS011;36921;49.006;9.292;2023-08-08T07:17:22;2.25;;;0.88;;
50932;SDS011;36921;49.006;9.292;2023-08-08T07:19:48;4.00;;;0.80;;
50932;SDS011;36921;49.006;9.292;2023-08-08T07:22:13;2.03;;;0.65;;
50932;SDS011;36921;49.006;9.292;2023-08-08T07:24:38;1.17;;;0.50;;
50932;SDS011;36921;49.006;9.292;2023-08-08T07:27:04;1.80;;;0.77;;
50932;SDS011;36921;49.006;9.292;2023-08-08T07:29:29;3.08;;;0.60;;
50932;SDS011;36921;49.006;9.292;2023-08-08T07:31:57;1.33;;;0.60;;
50932;SDS011;36921;49.006;9.292;2023-08-08T07:34:22;1.77;;;0.60;;
50932;SDS011;36921;49.006;9.292;2023-08-08T07:36:48;3.35;;;0.60;;
50932;SDS011;36921;49.006;9.292;2023-08-08T07:39:13;1.25;;;0.70;;
50932;SDS011;36921;49.006;9.292;2023-08-08T07:41:40;2.40;;;0.73;;
50932;SDS011;36921;49.006;9.292;2023-08-08T07:44:05;2.92;;;0.68;;
50932;SDS011;36921;49.006;9.292;2023-08-08T07:46:31;1.90;;;0.70;;
50932;SDS011;36921;49.006;9.292;2023-08-08T07:48:57;3.67;;;0.95;;
50932;SDS011;36921;49.006;9.292;2023-08-08T07:51:24;3.10;;;0.80;;
50932;SDS011;36921;49.006;9.292;2023-08-08T07:53:50;1.33;;;0.60;;
50932;SDS011;36921;49.006;9.292;2023-08-08T07:56:16;1.52;;;0.50;;
50932;SDS011;36921;49.006;9.292;2023-08-08T07:58:41;1.50;;;0.63;;
50932;SDS011;36921;49.006;9.292;2023-08-08T08:01:06;1.23;;;0.55;;
50932;SDS011;36921;49.006;9.292;2023-08-08T08:03:32;1.52;;;0.70;;
50932;SDS011;36921;49.006;9.292;2023-08-08T08:05:57;3.80;;;0.75;;
50932;SDS011;36921;49.006;9.292;2023-08-08T08:08:23;2.78;;;0.63;;
50932;SDS011;36921;49.006;9.292;2023-08-08T08:10:49;3.03;;;0.68;;
50932;SDS011;36921;49.006;9.292;2023-08-08T08:13:16;0.82;;;0.50;;
50932;SDS011;36921;49.006;9.292;2023-08-08T08:15:41;0.70;;;0.40;;
50932;SDS011;36921;49.006;9.292;2023-08-08T08:18:08;1.98;;;0.80;;
50932;SDS011;36921;49.006;9.292;2023-08-08T08:20:33;2.80;;;0.70;;
50932;SDS011;36921;49.006;9.292;2023-08-08T08:22:59;1.23;;;0.63;;
50932;SDS011;36921;49.006;9.292;2023-08-08T08:25:24;2.45;;;0.70;;
50932;SDS011;36921;49.006;9.292;2023-08-08T08:27:50;1.42;;;0.75;;
50932;SDS011;36921;49.006;9.292;2023-08-08T08:30:15;1.80;;;0.60;;
50932;SDS011;36921;49.006;9.292;2023-08-08T08:32:41;2.92;;;0.63;;
50932;SDS011;36921;49.006;9.292;2023-08-08T08:35:06;2.28;;;0.60;;
50932;SDS011;36921;49.006;9.292;2023-08-08T08:37:32;2.60;;;0.68;;
50932;SDS011;36921;49.006;9.292;2023-08-08T08:39:58;2.05;;;0.55;;
50932;SDS011;36921;49.006;9.292;2023-08-08T08:42:24;1.95;;;0.88;;
50932;SDS011;36921;49.006;9.292;2023-08-08T08:44:51;2.15;;;0.60;;
50932;SDS011;36921;49.006;9.292;2023-08-08T08:47:22;1.27;;;0.52;;
50932;SDS011;36921;49.006;9.292;2023-08-08T08:49:49;1.90;;;0.70;;
50932;SDS011;36921;49.006;9.292;2023-08-08T08:52:19;2.30;;;0.80;;
50932;SDS011;36921;49.006;9.292;2023-08-08T08:54:45;2.70;;;0.55;;
50932;SDS011;36921;49.006;9.292;2023-08-08T08:57:11;2.08;;;0.77;;
50932;SDS011;36921;49.006;9.292;2023-08-08T08:59:37;2.08;;;0.70;;
50932;SDS011;36921;49.006;9.292;2023-08-08T09:02:02;1.45;;;0.60;;
50932;SDS011;36921;49.006;9.292;2023-08-08T09:04:29;4.03;;;0.60;;
50932;SDS011;36921;49.006;9.292;2023-08-08T09:06:55;1.27;;;0.60;;
50932;SDS011;36921;49.006;9.292;2023-08-08T09:09:21;1.52;;;0.50;;
50932;SDS011;36921;49.006;9.292;2023-08-08T09:11:48;1.40;;;0.63;;
50932;SDS011;36921;49.006;9.292;2023-08-08T09:14:18;3.85;;;0.70;;
50932;SDS011;36921;49.006;9.292;2023-08-08T09:16:46;4.95;;;0.75;;
50932;SDS011;36921;49.006;9.292;2023-08-08T09:19:13;1.60;;;0.57;;
50932;SDS011;36921;49.006;9.292;2023-08-08T09:21:39;1.55;;;0.50;;
50932;SDS011;36921;49.006;9.292;2023-08-08T09:24:04;1.48;;;0.50;;
50932;SDS011;36921;49.006;9.292;2023-08-08T09:26:30;2.95;;;1.02;;
50932;SDS011;36921;49.006;9.292;2023-08-08T09:28:56;1.55;;;0.52;;
50932;SDS011;36921;49.006;9.292;2023-08-08T09:31:24;1.65;;;0.70;;
50932;SDS011;36921;49.006;9.292;2023-08-08T09:33:50;0.50;;;0.40;;
50932;SDS011;36921;49.006;9.292;2023-08-08T09:36:17;2.45;;;0.68;;
50932;SDS011;36921;49.006;9.292;2023-08-08T09:38:44;2.78;;;0.77;;
50932;SDS011;36921;49.006;9.292;2023-08-08T09:41:10;1.33;;;0.60;;
50932;SDS011;36921;49.006;9.292;2023-08-08T09:43:36;2.00;;;0.70;;
50932;SDS011;36921;49.006;9.292;2023-08-08T09:46:03;3.00;;;0.60;;
50932;SDS011;36921;49.006;9.292;2023-08-08T09:48:32;4.10;;;0.60;;
50932;SDS011;36921;49.006;9.292;2023-08-08T09:50:59;1.60;;;0.50;;
50932;SDS011;36921;49.006;9.292;2023-08-08T09:53:25;2.10;;;0.60;;
50932;SDS011;36921;49.006;9.292;2023-08-08T09:55:53;2.92;;;0.52;;
50932;SDS011;36921;49.006;9.292;2023-08-08T09:58:22;1.40;;;1.05;;
50932;SDS011;36921;49.006;9.292;2023-08-08T10:00:51;3.92;;;0.50;;
50932;SDS011;36921;49.006;9.292;2023-08-08T10:03:17;3.67;;;0.70;;
50932;SDS011;36921;49.006;9.292;2023-08-08T10:05:44;1.17;;;0.50;;
50932;SDS011;36921;49.006;9.292;2023-08-08T10:08:11;0.93;;;0.60;;
50932;SDS011;36921;49.006;9.292;2023-08-08T10:10:37;1.23;;;0.70;;
50932;SDS011;36921;49.006;9.292;2023-08-08T10:13:04;3.35;;;0.80;;
50932;SDS011;36921;49.006;9.292;2023-08-08T10:15:30;0.98;;;0.50;;
50932;SDS011;36921;49.006;9.292;2023-08-08T10:17:56;1.33;;;0.40;;
50932;SDS011;36921;49.006;9.292;2023-08-08T10:20:24;1.75;;;0.50;;
50932;SDS011;36921;49.006;9.292;2023-08-08T10:22:51;1.08;;;0.50;;
50932;SDS011;36921;49.006;9.292;2023-08-08T10:25:26;1.27;;;0.50;;
50932;SDS011;36921;49.006;9.292;2023-08-08T10:30:28;2.03;;;0.50;;
50932;SDS011;36921;49.006;9.292;2023-08-08T10:32:56;3.38;;;0.70;;
50932;SDS011;36921;49.006;9.292;2023-08-08T10:35:22;1.75;;;0.70;;
50932;SDS011;36921;49.006;9.292;2023-08-08T10:37:53;1.38;;;0.50;;
50932;SDS011;36921;49.006;9.292;2023-08-08T10:40:19;1.38;;;0.63;;
50932;SDS011;36921;49.006;9.292;2023-08-08T10:42:46;1.13;;;0.70;;
50932;SDS011;36921;49.006;9.292;2023-08-08T10:45:12;1.45;;;0.65;;
50932;SDS011;36921;49.006;9.292;2023-08-08T10:52:55;1.42;;;0.50;;
50932;SDS011;36921;49.006;9.292;2023-08-08T10:55:21;2.20;;;0.75;;
50932;SDS011;36921;49.006;9.292;2023-08-08T10:57:55;2.08;;;0.60;;
50932;SDS011;36921;49.006;9.292;2023-08-08T11:00:34;2.22;;;0.82;;
50932;SDS011;36921;49.006;9.292;2023-08-08T11:03:01;1.10;;;0.60;;
50932;SDS011;36921;49.006;9.292;2023-08-08T11:05:28;1.70;;;0.70;;
50932;SDS011;36921;49.006;9.292;2023-08-08T11:07:55;1.50;;;0.50;;
50932;SDS011;36921;49.006;9.292;2023-08-08T11:10:22;1.35;;;0.50;;
50932;SDS011;36921;49.006;9.292;2023-08-08T11:12:54;1.40;;;0.40;;
50932;SDS011;36921;49.006;9.292;2023-08-08T11:15:24;1.70;;;0.63;;
50932;SDS011;36921;49.006;9.292;2023-08-08T11:17:52;2.53;;;0.60;;
50932;SDS011;36921;49.006;9.292;2023-08-08T11:20:18;2.65;;;0.50;;
50932;SDS011;36921;49.006;9.292;2023-08-08T11:22:43;0.57;;;0.45;;
50932;SDS011;36921;49.006;9.292;2023-08-08T11:25:09;1.80;;;0.50;;
50932;SDS011;36921;49.006;9.292;2023-08-08T11:27:34;1.77;;;0.45;;
50932;SDS011;36921;49.006;9.292;2023-08-08T11:29:59;1.67;;;0.45;;
50932;SDS011;36921;49.006;9.292;2023-08-08T11:32:25;2.40;;;0.70;;
50932;SDS011;36921;49.006;9.292;2023-08-08T11:34:54;1.38;;;0.55;;
50932;SDS011;36921;49.006;9.292;2023-08-08T11:37:20;0.98;;;0.50;;
50932;SDS011;36921;49.006;9.292;2023-08-08T11:39:47;1.83;;;0.60;;
50932;SDS011;36921;49.006;9.292;2023-08-08T11:42:13;1.88;;;0.70;;
50932;SDS011;36921;49.006;9.292;2023-08-08T11:44:39;2.45;;;0.70;;
50932;SDS011;36921;49.006;9.292;2023-08-08T11:47:05;1.23;;;0.70;;
50932;SDS011;36921;49.006;9.292;2023-08-08T11:49:38;3.53;;;0.75;;
50932;SDS011;36921;49.006;9.292;2023-08-08T11:52:06;1.30;;;0.50;;
50932;SDS011;36921;49.006;9.292;2023-08-08T11:54:32;1.58;;;0.90;;
50932;SDS011;36921;49.006;9.292;2023-08-08T11:56:58;3.63;;;0.90;;
50932;SDS011;36921;49.006;9.292;2023-08-08T11:59:23;1.55;;;0.65;;
50932;SDS011;36921;49.006;9.292;2023-08-08T12:01:49;2.80;;;0.80;;
50932;SDS011;36921;49.006;9.292;2023-08-08T12:04:14;1.30;;;0.80;;
50932;SDS011;36921;49.006;9.292;2023-08-08T12:06:40;1.73;;;0.63;;
50932;SDS011;36921;49.006;9.292;2023-08-08T12:09:11;2.08;;;0.70;;
50932;SDS011;36921;49.006;9.292;2023-08-08T12:11:38;1.60;;;0.73;;
50932;SDS011;36921;49.006;9.292;2023-08-08T12:14:06;1.55;;;0.47;;
50932;SDS011;36921;49.006;9.292;2023-08-08T12:16:33;0.85;;;0.57;;
50932;SDS011;36921;49.006;9.292;2023-08-08T12:19:02;0.80;;;0.47;;
50932;SDS011;36921;49.006;9.292;2023-08-08T12:21:28;1.30;;;0.70;;
50932;SDS011;36921;49.006;9.292;2023-08-08T12:23:53;1.58;;;0.68;;
50932;SDS011;36921;49.006;9.292;2023-08-08T12:26:19;1.27;;;0.80;;
50932;SDS011;36921;49.006;9.292;2023-08-08T12:28:44;1.45;;;0.55;;
50932;SDS011;36921;49.006;9.292;2023-08-08T12:31:10;2.25;;;0.70;;
50932;SDS011;36921;49.006;9.292;2023-08-08T12:33:35;1.55;;;0.65;;
50932;SDS011;36921;49.006;9.292;2023-08-08T12:36:01;2.28;;;0.63;;
50932;SDS011;36921;49.006;9.292;2023-08-08T12:38:26;1.15;;;0.80;;
50932;SDS011;36921;49.006;9.292;2023-08-08T12:40:51;0.80;;;0.60;;
50932;SDS011;36921;49.006;9.292;2023-08-08T12:43:17;1.85;;;0.57;;
50932;SDS011;36921;49.006;9.292;2023-08-08T12:45:46;1.25;;;0.47;;
50932;SDS011;36921;49.006;9.292;2023-08-08T12:48:12;1.63;;;0.73;;
50932;SDS011;36921;49.006;9.292;2023-08-08T12:50:38;3.30;;;0.80;;
50932;SDS011;36921;49.006;9.292;2023-08-08T12:53:04;1.13;;;0.50;;
50932;SDS011;36921;49.006;9.292;2023-08-08T12:55:30;3.50;;;1.00;;
50932;SDS011;36921;49.006;9.292;2023-08-08T12:57:56;1.65;;;0.50;;
50932;SDS011;36921;49.006;9.292;2023-08-08T13:00:21;3.67;;;0.68;;
50932;SDS011;36921;49.006;9.292;2023-08-08T13:02:46;0.98;;;0.50;;
50932;SDS011;36921;49.006;9.292;2023-08-08T13:05:12;1.98;;;0.57;;
50932;SDS011;36921;49.006;9.292;2023-08-08T13:07:37;1.13;;;0.40;;
50932;SDS011;36921;49.006;9.292;2023-08-08T13:10:03;0.95;;;0.40;;
50932;SDS011;36921;49.006;9.292;2023-08-08T13:12:29;2.03;;;0.60;;
50932;SDS011;36921;49.006;9.292;2023-08-08T13:14:54;2.00;;;0.55;;
50932;SDS011;36921;49.006;9.292;2023-08-08T13:17:20;1.35;;;0.60;;
50932;SDS011;36921;49.006;9.292;2023-08-08T13:19:46;1.48;;;0.50;;
50932;SDS011;36921;49.006;9.292;2023-08-08T13:22:11;2.95;;;0.63;;
50932;SDS011;36921;49.006;9.292;2023-08-08T13:24:37;1.33;;;0.50;;
50932;SDS011;36921;49.006;9.292;2023-08-08T13:27:02;6.60;;;0.70;;
50932;SDS011;36921;49.006;9.292;2023-08-08T13:29:28;1.25;;;0.55;;
50932;SDS011;36921;49.006;9.292;2023-08-08T13:31:53;5.63;;;0.85;;
50932;SDS011;36921;49.006;9.292;2023-08-08T13:34:19;3.15;;;0.68;;
50932;SDS011;36921;49.006;9.292;2023-08-08T13:36:44;1.25;;;0.60;;
50932;SDS011;36921;49.006;9.292;2023-08-08T13:39:10;1.10;;;0.57;;
50932;SDS011;36921;49.006;9.292;2023-08-08T13:41:35;4.28;;;0.60;;
50932;SDS011;36921;49.006;9.292;2023-08-08T13:44:00;2.25;;;0.68;;
50932;SDS011;36921;49.006;9.292;2023-08-08T13:46:26;2.65;;;0.75;;
50932;SDS011;36921;49.006;9.292;2023-08-08T13:48:51;1.65;;;0.50;;
50932;SDS011;36921;49.006;9.292;2023-08-08T13:51:17;0.65;;;0.40;;
50932;SDS011;36921;49.006;9.292;2023-08-08T13:53:43;2.45;;;0.60;;
50932;SDS011;36921;49.006;9.292;2023-08-08T13:56:09;2.72;;;0.65;;
50932;SDS011;36921;49.006;9.292;2023-08-08T13:58:36;2.03;;;0.50;;
50932;SDS011;36921;49.006;9.292;2023-08-08T14:01:01;2.13;;;0.60;;
50932;SDS011;36921;49.006;9.292;2023-08-08T14:03:26;2.45;;;0.63;;
50932;SDS011;36921;49.006;9.292;2023-08-08T14:05:51;2.42;;;0.82;;
50932;SDS011;36921;49.006;9.292;2023-08-08T14:08:20;1.33;;;0.55;;
50932;SDS011;36921;49.006;9.292;2023-08-08T14:10:45;1.67;;;0.65;;
50932;SDS011;36921;49.006;9.292;2023-08-08T14:13:11;1.08;;;0.50;;
50932;SDS011;36921;49.006;9.292;2023-08-08T14:15:37;1.95;;;0.63;;
50932;SDS011;36921;49.006;9.292;2023-08-08T14:18:02;3.92;;;0.50;;
50932;SDS011;36921;49.006;9.292;2023-08-08T14:20:28;1.50;;;0.80;;
50932;SDS011;36921;49.006;9.292;2023-08-08T14:22:53;1.60;;;0.70;;
50932;SDS011;36921;49.006;9.292;2023-08-08T14:25:18;3.78;;;0.70;;
50932;SDS011;36921;49.006;9.292;2023-08-08T14:27:44;2.10;;;0.60;;
50932;SDS011;36921;49.006;9.292;2023-08-08T14:30:09;0.75;;;0.52;;
50932;SDS011;36921;49.006;9.292;2023-08-08T14:32:35;2.63;;;0.60;;
50932;SDS011;36921;49.006;9.292;2023-08-08T14:35:01;2.90;;;0.80;;
50932;SDS011;36921;49.006;9.292;2023-08-08T14:37:27;2.38;;;0.80;;
50932;SDS011;36921;49.006;9.292;2023-08-08T14:39:53;0.98;;;0.52;;
50932;SDS011;36921;49.006;9.292;2023-08-08T14:42:18;2.20;;;0.70;;
50932;SDS011;36921;49.006;9.292;2023-08-08T14:44:44;4.07;;;0.60;;
50932;SDS011;36921;49.006;9.292;2023-08-08T14:47:09;1.10;;;0.60;;
50932;SDS011;36921;49.006;9.292;2023-08-08T14:49:34;1.88;;;0.50;;